Time;durP1;ratioP1;P1;durP2;ratioP2;P2;SDS_P1;SDS_P2;PMS_P1;PMS_P2;Temp;Humidity;BMP_temperature;BMP_pressure;BME280_temperature;BME280_humidity;BME280_pressure;Samples;Min_cycle;Max_cycle;Signal;HPM_P1;HPM_P2
2022/06/21 00:01:15;;;;;;;;;;;24.80;99.90;;;;;;5015343;28;20337;-70
2022/06/21 00:03:41;;;;;;;;;;;24.80;99.90;;;;;;5014581;28;20012;-70
2022/06/21 00:06:06;;;;;;;;;;;24.70;99.90;;;;;;5015891;28;19956;-70
2022/06/21 00:08:33;;;;;;;;;;;24.80;99.90;;;;;;5015469;28;19917;-70
2022/06/21 00:10:59;;;;;;;;;;;24.90;99.90;;;;;;5014694;28;20251;-70
2022/06/21 00:13:26;;;;;;;;;;;24.80;99.90;;;;;;5015712;28;19944;-70
2022/06/21 00:15:57;;;;;;;;;;;24.80;99.90;;;;;;5016347;28;19909;-70
2022/06/21 00:18:24;;;;;;;;;;;24.80;99.90;;;;;;5016355;28;19910;-70
2022/06/21 00:20:50;;;;;;;;;;;24.80;99.90;;;;;;5015528;28;19921;-70
2022/06/21 00:23:17;;;;;;;;;;;24.80;99.90;;;;;;5016354;28;19964;-70
2022/06/21 00:25:45;;;;;;;;;;;24.70;99.90;;;;;;5015384;28;19913;-70
2022/06/21 00:28:10;;;;;;;;;;;24.80;99.90;;;;;;5017352;28;19909;-70
2022/06/21 00:30:36;;;;;;;;;;;24.80;99.90;;;;;;5015556;28;19920;-70
2022/06/21 00:33:01;;;;;;;;;;;24.90;99.90;;;;;;5015678;28;19925;-70
2022/06/21 00:35:27;;;;;;;;;;;24.80;99.90;;;;;;5016027;28;19917;-70
2022/06/21 00:37:53;;;;;;;;;;;24.80;99.90;;;;;;5015925;28;19941;-70
2022/06/21 00:40:22;;;;;;;;;;;24.80;99.90;;;;;;5014760;28;20278;-70
2022/06/21 00:42:51;;;;;;;;;;;24.80;99.90;;;;;;5015636;28;20389;-70
2022/06/21 00:45:31;;;;;;;;;;;24.80;99.90;;;;;;5015841;28;19905;-70
2022/06/21 00:48:00;;;;;;;;;;;24.80;99.90;;;;;;5266304;23;20008;-70
2022/06/21 00:50:25;;;;;;;;;;;24.90;99.90;;;;;;5035798;28;20399;-70
2022/06/21 00:52:57;;;;;;;;;;;24.80;99.90;;;;;;5034988;28;19917;-70
2022/06/21 00:55:40;;;;;;;;;;;24.90;99.90;;;;;;5078274;23;19983;-74
2022/06/21 00:58:08;;;;;;;;;;;24.70;99.90;;;;;;5013611;28;19980;-74
2022/06/21 01:00:35;;;;;;;;;;;24.80;99.90;;;;;;5008871;28;19909;-73
2022/06/21 01:03:07;;;;;;;;;;;24.80;99.90;;;;;;5013391;28;19956;-74
2022/06/21 01:05:35;;;;;;;;;;;24.70;99.90;;;;;;5015803;28;20333;-74
2022/06/21 01:08:00;;;;;;;;;;;24.70;99.90;;;;;;5010145;28;19909;-75
2022/06/21 01:10:26;;;;;;;;;;;24.80;99.90;;;;;;5014472;28;19956;-74
2022/06/21 01:13:03;;;;;;;;;;;24.70;99.90;;;;;;5013990;28;19940;-74
2022/06/21 01:15:31;;;;;;;;;;;24.70;99.90;;;;;;5014032;28;20296;-75
2022/06/21 01:18:00;;;;;;;;;;;24.70;99.90;;;;;;5013248;28;20386;-74
2022/06/21 01:20:26;;;;;;;;;;;24.70;99.90;;;;;;5014150;28;20040;-74
2022/06/21 01:23:10;;;;;;;;;;;24.80;99.90;;;;;;5013940;28;19945;-74
2022/06/21 01:25:35;;;;;;;;;;;24.80;99.90;;;;;;5012845;28;19956;-74
2022/06/21 01:28:01;;;;;;;;;;;24.80;99.90;;;;;;5001321;28;19917;-74
2022/06/21 01:30:28;;;;;;;;;;;24.80;99.90;;;;;;5013942;28;20361;-75
2022/06/21 01:32:56;;;;;;;;;;;24.70;99.90;;;;;;5013062;28;19918;-74
2022/06/21 01:35:36;;;;;;;;;;;24.80;99.90;;;;;;5013698;28;19915;-74
2022/06/21 01:38:03;;;;;;;;;;;24.70;99.90;;;;;;5013779;28;19909;-74
2022/06/21 01:40:31;;;;;;;;;;;24.70;99.90;;;;;;5012463;28;19955;-74
2022/06/21 01:42:59;;;;;;;;;;;24.70;99.90;;;;;;5013476;28;19992;-74
2022/06/21 01:45:28;;;;;;;;;;;24.80;99.90;;;;;;5013549;28;19932;-74
2022/06/21 01:47:58;;;;;;;;;;;24.80;99.90;;;;;;5013024;28;19910;-74
2022/06/21 01:50:23;;;;;;;;;;;24.80;99.90;;;;;;5013262;28;19917;-74
2022/06/21 01:52:51;;;;;;;;;;;24.90;99.90;;;;;;5012525;28;19918;-74
2022/06/21 01:55:22;;;;;;;;;;;24.80;99.90;;;;;;5012754;28;19928;-74
2022/06/21 01:57:49;;;;;;;;;;;24.80;99.90;;;;;;5012450;28;19913;-74
2022/06/21 02:00:14;;;;;;;;;;;24.70;99.90;;;;;;5012603;28;20016;-74
2022/06/21 02:02:45;;;;;;;;;;;24.80;99.90;;;;;;5013207;28;20363;-75
2022/06/21 02:05:14;;;;;;;;;;;24.80;99.90;;;;;;5013104;28;20171;-74
2022/06/21 02:07:42;;;;;;;;;;;24.70;99.90;;;;;;5013604;28;20004;-74
2022/06/21 02:10:10;;;;;;;;;;;24.70;99.90;;;;;;5012755;28;19913;-74
2022/06/21 02:12:38;;;;;;;;;;;24.80;99.90;;;;;;4998229;28;20267;-75
2022/06/21 02:15:06;;;;;;;;;;;24.70;99.90;;;;;;5008471;28;20293;-75
2022/06/21 02:17:34;;;;;;;;;;;24.80;99.90;;;;;;5013218;28;19913;-74
2022/06/21 02:20:19;;;;;;;;;;;24.80;99.90;;;;;;5013151;28;19909;-74
2022/06/21 02:22:45;;;;;;;;;;;24.80;99.90;;;;;;5014218;28;20286;-75
2022/06/21 02:25:18;;;;;;;;;;;24.80;99.90;;;;;;5012450;28;19917;-74
2022/06/21 02:27:44;;;;;;;;;;;24.80;99.90;;;;;;5014344;28;19913;-74
2022/06/21 02:30:29;;;;;;;;;;;24.80;99.90;;;;;;5012172;28;20055;-75
2022/06/21 02:32:56;;;;;;;;;;;24.80;99.90;;;;;;5012550;28;20007;-74
2022/06/21 02:35:24;;;;;;;;;;;24.70;99.90;;;;;;5012824;28;19910;-74
2022/06/21 02:37:51;;;;;;;;;;;24.70;99.90;;;;;;5012588;28;20378;-74
2022/06/21 02:40:37;;;;;;;;;;;24.70;99.90;;;;;;5012243;28;19924;-74
2022/06/21 02:43:04;;;;;;;;;;;24.80;99.90;;;;;;5012404;28;19914;-74
2022/06/21 02:45:53;;;;;;;;;;;24.80;99.90;;;;;;5013106;28;19944;-74
2022/06/21 02:48:22;;;;;;;;;;;24.70;99.90;;;;;;5010374;28;20020;-74
2022/06/21 02:50:59;;;;;;;;;;;24.70;99.90;;;;;;5009960;28;19956;-74
2022/06/21 02:53:44;;;;;;;;;;;24.70;99.90;;;;;;5012514;28;19918;-74
2022/06/21 02:56:14;;;;;;;;;;;24.70;99.90;;;;;;5008928;28;19925;-74
2022/06/21 02:58:39;;;;;;;;;;;24.70;99.90;;;;;;5004749;28;19909;-74
2022/06/21 03:01:11;;;;;;;;;;;24.70;99.90;;;;;;5008360;28;19914;-74
2022/06/21 03:03:36;;;;;;;;;;;24.60;99.90;;;;;;5012819;28;19913;-74
2022/06/21 03:06:06;;;;;;;;;;;24.60;99.90;;;;;;5015884;28;20398;-75
2022/06/21 03:08:32;;;;;;;;;;;24.70;99.90;;;;;;5016410;28;19913;-74
2022/06/21 03:10:58;;;;;;;;;;;24.60;99.90;;;;;;5016186;28;19909;-74
2022/06/21 03:13:28;;;;;;;;;;;24.60;99.90;;;;;;5016357;28;19920;-75
2022/06/21 03:15:57;;;;;;;;;;;24.60;99.90;;;;;;5016150;28;19980;-74
2022/06/21 03:18:24;;;;;;;;;;;24.60;99.90;;;;;;5016373;28;19909;-74
2022/06/21 03:20:51;;;;;;;;;;;24.60;99.90;;;;;;5015571;28;19909;-74
2022/06/21 03:23:18;;;;;;;;;;;24.60;99.90;;;;;;5016669;28;20350;-74
2022/06/21 03:25:54;;;;;;;;;;;24.60;99.90;;;;;;5016161;28;19941;-74
2022/06/21 03:28:31;;;;;;;;;;;24.60;99.90;;;;;;5016078;28;19944;-74
2022/06/21 03:31:17;;;;;;;;;;;24.50;99.90;;;;;;5016325;28;20012;-74
2022/06/21 03:33:45;;;;;;;;;;;24.40;99.90;;;;;;5002124;28;19960;-74
2022/06/21 03:36:13;;;;;;;;;;;24.50;99.90;;;;;;5015908;28;20008;-75
2022/06/21 03:38:40;;;;;;;;;;;24.50;99.90;;;;;;5016312;28;19909;-74
2022/06/21 03:43:57;;;;;;;;;;;24.50;99.90;;;;;;5015779;28;19916;-74
2022/06/21 03:46:30;;;;;;;;;;;24.50;99.90;;;;;;5016055;28;19960;-74
2022/06/21 03:48:59;;;;;;;;;;;24.40;99.90;;;;;;5015967;28;19909;-75
2022/06/21 03:51:28;;;;;;;;;;;24.40;99.90;;;;;;5014763;28;20383;-74
2022/06/21 03:53:58;;;;;;;;;;;24.40;99.90;;;;;;5014579;28;19968;-74
2022/06/21 03:56:30;;;;;;;;;;;24.40;99.90;;;;;;5015319;28;19932;-74
2022/06/21 03:59:02;;;;;;;;;;;24.40;99.90;;;;;;5015642;28;20345;-74
2022/06/21 04:01:34;;;;;;;;;;;24.40;99.90;;;;;;5016630;28;20274;-74
2022/06/21 04:04:06;;;;;;;;;;;24.40;99.90;;;;;;5015127;28;19964;-74
2022/06/21 04:06:37;;;;;;;;;;;24.50;99.90;;;;;;5015428;28;19916;-75
2022/06/21 04:09:05;;;;;;;;;;;24.40;99.90;;;;;;5015138;28;20000;-74
2022/06/21 04:11:40;;;;;;;;;;;24.50;99.90;;;;;;5013961;28;19917;-74
2022/06/21 04:14:20;;;;;;;;;;;24.40;99.90;;;;;;5014969;28;19917;-74
2022/06/21 04:16:49;;;;;;;;;;;24.50;99.90;;;;;;5014221;28;19916;-74
2022/06/21 04:19:28;;;;;;;;;;;24.40;99.90;;;;;;5015220;28;19913;-75
2022/06/21 04:22:14;;;;;;;;;;;24.40;99.90;;;;;;5013807;28;19917;-75
2022/06/21 04:24:43;;;;;;;;;;;24.40;99.90;;;;;;5013781;28;19910;-75
2022/06/21 04:27:11;;;;;;;;;;;24.40;99.90;;;;;;5014003;28;19923;-75
2022/06/21 04:29:40;;;;;;;;;;;24.40;99.90;;;;;;5014726;28;19997;-74
2022/06/21 04:32:14;;;;;;;;;;;24.40;99.90;;;;;;5015111;28;20001;-75
2022/06/21 04:34:43;;;;;;;;;;;24.40;99.90;;;;;;5014239;28;19909;-74
2022/06/21 04:37:19;;;;;;;;;;;24.40;99.90;;;;;;5014726;28;20301;-75
2022/06/21 04:39:48;;;;;;;;;;;24.40;99.90;;;;;;5000731;28;19916;-73
2022/06/21 04:42:16;;;;;;;;;;;24.40;99.90;;;;;;5013567;28;19941;-75
2022/06/21 04:44:44;;;;;;;;;;;24.40;99.90;;;;;;5015096;28;20387;-75
2022/06/21 04:47:21;;;;;;;;;;;24.40;99.90;;;;;;5014548;28;19933;-74
2022/06/21 04:50:00;;;;;;;;;;;24.40;99.90;;;;;;5013748;28;19909;-74
2022/06/21 04:52:29;;;;;;;;;;;24.40;99.90;;;;;;5014487;28;20401;-75
2022/06/21 04:54:55;;;;;;;;;;;24.40;99.90;;;;;;5014498;28;19918;-74
2022/06/21 04:57:22;;;;;;;;;;;24.40;99.90;;;;;;5014542;28;20355;-75
2022/06/21 05:00:03;;;;;;;;;;;24.30;99.90;;;;;;5011908;28;19913;-74
2022/06/21 05:02:31;;;;;;;;;;;24.40;99.90;;;;;;5013067;28;19916;-74
2022/06/21 05:05:11;;;;;;;;;;;24.50;99.90;;;;;;5012475;28;19992;-73
2022/06/21 05:07:44;;;;;;;;;;;24.50;99.90;;;;;;5013582;28;20363;-73
2022/06/21 05:10:14;;;;;;;;;;;24.60;99.90;;;;;;5014298;28;19917;-73
2022/06/21 05:12:42;;;;;;;;;;;24.60;99.90;;;;;;4998043;28;19917;-73
2022/06/21 05:15:18;;;;;;;;;;;24.60;99.90;;;;;;5013329;28;19913;-73
2022/06/21 05:17:48;;;;;;;;;;;24.60;99.90;;;;;;5014896;28;19913;-73
2022/06/21 05:20:18;;;;;;;;;;;24.70;99.90;;;;;;5013763;28;19909;-73
2022/06/21 05:22:46;;;;;;;;;;;24.70;99.90;;;;;;5013767;28;19967;-73
2022/06/21 05:25:30;;;;;;;;;;;24.70;99.90;;;;;;5008450;28;19913;-73
2022/06/21 05:28:11;;;;;;;;;;;24.70;99.90;;;;;;5012944;28;19987;-73
2022/06/21 05:30:49;;;;;;;;;;;24.70;99.90;;;;;;5011386;28;19944;-73
2022/06/21 05:33:19;;;;;;;;;;;24.70;99.90;;;;;;5009807;28;19917;-73
2022/06/21 05:35:45;;;;;;;;;;;24.80;99.90;;;;;;5011572;28;19992;-73
2022/06/21 05:38:21;;;;;;;;;;;24.80;99.90;;;;;;5013882;28;19988;-73
2022/06/21 05:40:57;;;;;;;;;;;24.80;99.90;;;;;;5013907;28;19913;-73
2022/06/21 05:43:26;;;;;;;;;;;24.80;99.90;;;;;;5020969;23;20382;-68
2022/06/21 05:45:54;;;;;;;;;;;24.80;99.90;;;;;;5015452;28;19909;-69
2022/06/21 05:48:23;;;;;;;;;;;24.80;99.90;;;;;;5014708;28;19905;-69
2022/06/21 05:50:49;;;;;;;;;;;24.80;99.90;;;;;;5012046;28;19909;-68
2022/06/21 05:53:20;;;;;;;;;;;24.90;99.90;;;;;;5014836;28;19924;-69
2022/06/21 05:55:46;;;;;;;;;;;24.90;99.90;;;;;;5014859;28;19917;-70
2022/06/21 05:58:21;;;;;;;;;;;25.00;99.90;;;;;;5015028;28;19910;-69
2022/06/21 06:00:54;;;;;;;;;;;25.00;99.90;;;;;;5014557;28;20047;-68
2022/06/21 06:03:36;;;;;;;;;;;25.00;99.90;;;;;;5015174;28;19958;-70
2022/06/21 06:06:05;;;;;;;;;;;25.00;99.90;;;;;;5028801;28;19909;-69
2022/06/21 06:08:38;;;;;;;;;;;25.10;99.90;;;;;;5014960;28;20310;-67
2022/06/21 06:11:06;;;;;;;;;;;25.10;99.90;;;;;;5013345;28;19921;-68
2022/06/21 06:13:34;;;;;;;;;;;25.10;99.90;;;;;;5014767;28;20417;-68
2022/06/21 06:16:02;;;;;;;;;;;25.10;99.90;;;;;;5011917;28;19909;-68
2022/06/21 06:18:34;;;;;;;;;;;25.10;99.90;;;;;;5012934;28;19917;-69
2022/06/21 06:21:02;;;;;;;;;;;25.20;99.90;;;;;;5013666;28;19932;-69
2022/06/21 06:23:30;;;;;;;;;;;25.30;99.90;;;;;;5014397;28;19910;-69
2022/06/21 06:26:15;;;;;;;;;;;25.30;99.90;;;;;;5014593;28;19909;-69
2022/06/21 06:28:50;;;;;;;;;;;25.10;99.90;;;;;;5013638;28;20336;-69
2022/06/21 06:31:27;;;;;;;;;;;25.10;99.90;;;;;;5012415;28;20000;-68
2022/06/21 06:34:02;;;;;;;;;;;25.20;99.90;;;;;;5014672;28;20000;-68
2022/06/21 06:36:31;;;;;;;;;;;25.10;99.90;;;;;;5014693;28;20008;-69
2022/06/21 06:38:58;;;;;;;;;;;25.10;99.90;;;;;;5015554;28;19905;-68
2022/06/21 06:41:32;;;;;;;;;;;25.20;99.90;;;;;;5019402;28;19919;-68
2022/06/21 06:43:58;;;;;;;;;;;25.20;99.90;;;;;;5020976;28;19909;-69
2022/06/21 06:46:27;;;;;;;;;;;25.30;99.90;;;;;;5020959;28;20362;-69
2022/06/21 06:48:54;;;;;;;;;;;25.20;99.90;;;;;;5022540;28;19923;-69
2022/06/21 06:51:43;;;;;;;;;;;25.10;99.90;;;;;;5018541;28;19928;-69
2022/06/21 06:54:13;;;;;;;;;;;25.10;99.90;;;;;;5010129;28;19909;-69
2022/06/21 06:56:48;;;;;;;;;;;25.10;99.90;;;;;;5034911;28;19909;-69
2022/06/21 06:59:16;;;;;;;;;;;25.20;99.90;;;;;;5034645;28;19912;-69
2022/06/21 07:01:44;;;;;;;;;;;25.30;99.90;;;;;;5034923;28;19913;-68
2022/06/21 07:04:13;;;;;;;;;;;25.20;99.90;;;;;;5032469;28;19913;-70
2022/06/21 07:06:38;;;;;;;;;;;25.20;99.90;;;;;;5005086;28;19909;-70
2022/06/21 07:09:09;;;;;;;;;;;25.30;99.90;;;;;;5014265;28;19913;-70
2022/06/21 07:11:38;;;;;;;;;;;25.40;99.90;;;;;;5012316;28;20503;-69
2022/06/21 07:14:04;;;;;;;;;;;25.40;99.90;;;;;;5011635;28;20361;-70
2022/06/21 07:16:31;;;;;;;;;;;25.40;99.90;;;;;;5011931;28;19915;-69
2022/06/21 07:18:59;;;;;;;;;;;25.50;99.90;;;;;;5012864;28;19999;-70
2022/06/21 07:21:25;;;;;;;;;;;25.40;99.90;;;;;;5012038;28;19913;-70
2022/06/21 07:23:52;;;;;;;;;;;25.40;99.90;;;;;;5015343;28;19968;-71
2022/06/21 07:26:30;;;;;;;;;;;25.40;99.90;;;;;;5016357;28;19905;-70
2022/06/21 07:28:55;;;;;;;;;;;25.50;99.90;;;;;;5010450;28;19909;-71
2022/06/21 07:31:25;;;;;;;;;;;25.60;99.90;;;;;;5016248;28;20409;-70
2022/06/21 07:34:09;;;;;;;;;;;25.50;99.90;;;;;;5018749;28;19963;-71
2022/06/21 07:36:53;;;;;;;;;;;25.60;99.90;;;;;;5020742;28;20050;-70
2022/06/21 07:39:28;;;;;;;;;;;25.70;99.90;;;;;;5017909;28;20362;-70
2022/06/21 07:41:56;;;;;;;;;;;25.70;99.90;;;;;;5018302;28;20012;-71
2022/06/21 07:44:25;;;;;;;;;;;25.70;99.90;;;;;;5020382;28;19962;-70
2022/06/21 07:46:53;;;;;;;;;;;25.70;99.90;;;;;;5020626;28;20341;-70
2022/06/21 07:49:25;;;;;;;;;;;25.80;99.90;;;;;;5019017;28;19972;-71
2022/06/21 07:51:57;;;;;;;;;;;25.80;99.90;;;;;;5017437;28;19961;-70
2022/06/21 07:54:35;;;;;;;;;;;25.90;99.90;;;;;;5017266;28;20373;-70
2022/06/21 07:57:05;;;;;;;;;;;25.90;99.90;;;;;;5016213;28;19952;-70
2022/06/21 07:59:38;;;;;;;;;;;25.90;99.90;;;;;;5016641;28;20298;-70
2022/06/21 08:07:48;;;;;;;;;;;26.10;99.90;;;;;;5017154;28;20412;-70
2022/06/21 08:10:18;;;;;;;;;;;26.10;99.90;;;;;;5017098;28;19913;-70
2022/06/21 08:12:44;;;;;;;;;;;26.20;99.90;;;;;;5016882;28;19925;-70
2022/06/21 08:15:10;;;;;;;;;;;26.20;99.90;;;;;;5016292;28;19929;-71
2022/06/21 08:17:42;;;;;;;;;;;26.20;99.90;;;;;;5016856;28;19948;-70
2022/06/21 08:20:12;;;;;;;;;;;26.30;99.90;;;;;;5016569;28;19916;-70
2022/06/21 08:22:43;;;;;;;;;;;26.20;99.90;;;;;;5017016;28;19913;-70
2022/06/21 08:25:18;;;;;;;;;;;26.20;99.90;;;;;;5017158;28;19992;-70
2022/06/21 08:27:53;;;;;;;;;;;26.20;99.90;;;;;;5001989;28;20683;-70
2022/06/21 08:30:22;;;;;;;;;;;26.20;99.90;;;;;;5016332;28;19905;-70
2022/06/21 08:32:58;;;;;;;;;;;26.20;99.90;;;;;;5015931;28;20363;-70
2022/06/21 08:35:39;;;;;;;;;;;26.20;99.90;;;;;;5016616;28;19991;-70
2022/06/21 08:38:07;;;;;;;;;;;26.40;99.90;;;;;;5016597;28;19910;-70
2022/06/21 08:40:41;;;;;;;;;;;26.40;99.90;;;;;;5016467;28;20000;-70
2022/06/21 08:43:06;;;;;;;;;;;26.60;99.90;;;;;;5016339;28;19955;-70
2022/06/21 08:45:47;;;;;;;;;;;26.50;99.90;;;;;;5016501;28;19914;-70
2022/06/21 08:48:31;;;;;;;;;;;26.50;99.90;;;;;;5012515;28;19913;-70
2022/06/21 08:51:03;;;;;;;;;;;26.50;99.90;;;;;;5015789;28;19905;-70
2022/06/21 08:53:47;;;;;;;;;;;26.40;99.90;;;;;;5016098;28;19918;-70
2022/06/21 08:56:37;;;;;;;;;;;26.40;99.90;;;;;;5016068;28;20008;-70
2022/06/21 08:59:23;;;;;;;;;;;26.30;99.90;;;;;;5016111;28;19924;-70
2022/06/21 09:02:07;;;;;;;;;;;26.30;99.90;;;;;;5008406;28;19963;-70
2022/06/21 09:04:35;;;;;;;;;;;26.20;99.90;;;;;;5016294;28;19979;-70
2022/06/21 09:07:19;;;;;;;;;;;26.40;99.90;;;;;;5016042;28;19917;-70
2022/06/21 09:09:55;;;;;;;;;;;26.50;99.90;;;;;;5001272;28;19957;-70
2022/06/21 09:12:30;;;;;;;;;;;26.60;99.90;;;;;;5015653;28;19918;-69
2022/06/21 09:15:06;;;;;;;;;;;26.50;99.90;;;;;;5014037;28;19906;-70
2022/06/21 09:17:41;;;;;;;;;;;26.70;99.90;;;;;;5014524;28;19913;-70
2022/06/21 09:20:28;;;;;;;;;;;26.80;99.90;;;;;;5015757;28;20439;-70
2022/06/21 09:22:54;;;;;;;;;;;26.70;99.90;;;;;;5015539;28;19928;-70
2022/06/21 09:25:36;;;;;;;;;;;26.70;99.90;;;;;;5015569;28;19909;-70
2022/06/21 09:28:06;;;;;;;;;;;26.60;99.90;;;;;;5015955;28;19953;-70
2022/06/21 09:30:47;;;;;;;;;;;26.60;99.90;;;;;;5015853;28;20059;-70
2022/06/21 09:33:26;;;;;;;;;;;26.80;99.90;;;;;;5011691;28;19914;-70
2022/06/21 09:36:02;;;;;;;;;;;27.10;99.90;;;;;;5012991;28;19906;-69
2022/06/21 09:38:42;;;;;;;;;;;27.10;99.90;;;;;;5015402;28;19909;-70
2022/06/21 09:41:08;;;;;;;;;;;27.30;99.90;;;;;;5015015;28;19919;-70
2022/06/21 09:43:39;;;;;;;;;;;27.10;99.90;;;;;;5015284;28;20305;-70
2022/06/21 09:46:08;;;;;;;;;;;27.30;99.90;;;;;;5015530;28;19909;-69
2022/06/21 09:49:13;;;;;;;;;;;27.20;99.90;;;;;;5015564;28;19913;-70
2022/06/21 09:51:38;;;;;;;;;;;27.10;99.90;;;;;;4957377;28;19918;-70
2022/06/21 09:54:12;;;;;;;;;;;26.90;99.90;;;;;;4973295;28;20291;-70
2022/06/21 09:56:51;;;;;;;;;;;27.10;99.90;;;;;;4972557;28;19910;-70
2022/06/21 09:59:37;;;;;;;;;;;27.30;99.90;;;;;;4972553;28;19917;-71
2022/06/21 10:02:11;;;;;;;;;;;27.30;99.90;;;;;;4972761;28;19910;-70
2022/06/21 10:04:51;;;;;;;;;;;27.30;99.90;;;;;;4972473;28;20001;-70
2022/06/21 10:07:30;;;;;;;;;;;27.30;99.90;;;;;;4972411;28;19950;-70
2022/06/21 10:10:10;;;;;;;;;;;27.20;99.90;;;;;;4972493;28;19910;-70
2022/06/21 10:12:41;;;;;;;;;;;27.00;99.90;;;;;;4972342;28;20029;-70
2022/06/21 10:15:42;;;;;;;;;;;26.80;99.90;;;;;;4968750;28;19906;-70
2022/06/21 10:18:16;;;;;;;;;;;26.80;99.90;;;;;;4877900;29;19911;-71
2022/06/21 10:20:46;;;;;;;;;;;26.70;99.90;;;;;;4877836;29;19927;-71
2022/06/21 10:23:31;;;;;;;;;;;26.70;99.90;;;;;;4927285;29;20271;-71
2022/06/21 10:26:17;;;;;;;;;;;26.70;99.90;;;;;;4935267;29;19910;-71
2022/06/21 10:29:01;;;;;;;;;;;26.60;99.90;;;;;;4934664;29;19953;-70
2022/06/21 10:31:27;;;;;;;;;;;26.50;99.90;;;;;;4934815;29;19911;-71
2022/06/21 10:33:55;;;;;;;;;;;26.60;99.90;;;;;;4935101;29;19970;-71
2022/06/21 10:36:29;;;;;;;;;;;26.70;99.90;;;;;;4934686;29;19911;-71
2022/06/21 10:39:13;;;;;;;;;;;26.70;99.90;;;;;;4932514;29;19994;-71
2022/06/21 10:44:57;;;;;;;;;;;27.00;99.90;;;;;;4934779;29;19962;-71
2022/06/21 10:47:25;;;;;;;;;;;27.10;99.90;;;;;;4934570;29;19969;-71
2022/06/21 10:49:54;;;;;;;;;;;27.00;99.90;;;;;;4935045;29;19911;-70
2022/06/21 10:52:19;;;;;;;;;;;27.00;99.90;;;;;;4981541;28;19921;-71
2022/06/21 10:54:47;;;;;;;;;;;26.90;99.90;;;;;;5013427;28;19916;-72
2022/06/21 10:57:41;;;;;;;;;;;26.80;99.90;;;;;;5013515;28;19979;-71
2022/06/21 11:03:12;;;;;;;;;;;26.70;99.90;;;;;;5023859;28;20765;-74
2022/06/21 11:05:56;;;;;;;;;;;26.70;99.90;;;;;;5016851;28;19929;-74
2022/06/21 11:08:29;;;;;;;;;;;26.70;99.90;;;;;;5017225;28;19909;-74
2022/06/21 11:11:03;;;;;;;;;;;26.80;99.90;;;;;;5017463;28;19916;-73
2022/06/21 11:13:40;;;;;;;;;;;26.90;99.90;;;;;;5016978;28;19917;-75
2022/06/21 11:16:05;;;;;;;;;;;26.80;99.90;;;;;;5016286;28;19955;-76
2022/06/21 11:18:37;;;;;;;;;;;26.90;99.90;;;;;;5013676;28;19994;-76
2022/06/21 11:21:07;;;;;;;;;;;26.70;99.90;;;;;;5016315;28;19910;-75
2022/06/21 11:23:54;;;;;;;;;;;26.60;99.90;;;;;;5016682;28;19905;-76
2022/06/21 11:26:36;;;;;;;;;;;26.60;99.90;;;;;;5020276;28;19909;-76
2022/06/21 11:29:10;;;;;;;;;;;26.50;99.90;;;;;;5021841;28;19905;-76
2022/06/21 11:31:46;;;;;;;;;;;26.60;99.90;;;;;;5020615;28;20011;-76
2022/06/21 11:34:11;;;;;;;;;;;26.60;99.90;;;;;;5020763;28;19912;-76
2022/06/21 11:36:40;;;;;;;;;;;26.80;99.90;;;;;;5016055;28;19916;-76
2022/06/21 11:39:06;;;;;;;;;;;26.80;99.90;;;;;;5019775;28;19933;-76
2022/06/21 11:44:24;;;;;;;;;;;26.70;99.90;;;;;;5020236;28;20329;-75
2022/06/21 11:46:54;;;;;;;;;;;26.60;99.90;;;;;;5020420;28;19940;-75
2022/06/21 11:49:26;;;;;;;;;;;26.70;99.90;;;;;;5020459;28;19905;-75
2022/06/21 11:51:51;;;;;;;;;;;26.70;99.90;;;;;;5017483;28;19913;-74
2022/06/21 11:54:21;;;;;;;;;;;26.70;99.90;;;;;;5017850;28;19996;-76
2022/06/21 11:56:47;;;;;;;;;;;26.60;99.90;;;;;;5017667;28;19913;-77
2022/06/21 11:59:19;;;;;;;;;;;26.50;99.90;;;;;;5009917;28;19909;-77
2022/06/21 12:01:51;;;;;;;;;;;26.50;99.90;;;;;;5009464;28;20660;-76
2022/06/21 12:04:17;;;;;;;;;;;26.50;99.90;;;;;;5009511;28;20342;-76
2022/06/21 12:07:01;;;;;;;;;;;26.50;99.90;;;;;;5008304;28;19956;-76
2022/06/21 12:09:27;;;;;;;;;;;26.50;99.90;;;;;;5009354;28;19916;-76
2022/06/21 12:12:07;;;;;;;;;;;26.30;99.90;;;;;;5010203;28;19917;-76
2022/06/21 12:14:51;;;;;;;;;;;26.40;99.90;;;;;;5008360;28;19944;-76
2022/06/21 12:17:20;;;;;;;;;;;26.30;99.90;;;;;;5008204;28;19920;-76
2022/06/21 12:19:48;;;;;;;;;;;26.20;99.90;;;;;;5007669;28;19932;-76
2022/06/21 12:22:28;;;;;;;;;;;26.20;99.90;;;;;;5006070;28;19909;-76
2022/06/21 12:24:54;;;;;;;;;;;26.20;99.90;;;;;;5008054;28;19916;-76
2022/06/21 12:27:20;;;;;;;;;;;26.20;99.90;;;;;;5009984;28;19913;-77
2022/06/21 12:29:46;;;;;;;;;;;26.10;99.90;;;;;;5009190;28;19921;-76
2022/06/21 12:32:19;;;;;;;;;;;26.10;99.90;;;;;;5008218;28;19932;-77
2022/06/21 12:34:55;;;;;;;;;;;26.10;99.90;;;;;;5007495;28;19992;-76
2022/06/21 12:37:25;;;;;;;;;;;26.20;99.90;;;;;;5007741;28;19932;-77
2022/06/21 12:39:56;;;;;;;;;;;26.10;99.90;;;;;;5008278;28;20342;-78
2022/06/21 12:43:00;;;;;;;;;;;26.20;99.90;;;;;;5010465;28;19914;-78
2022/06/21 12:45:31;;;;;;;;;;;26.20;99.90;;;;;;4966876;28;19913;-79
2022/06/21 12:48:11;;;;;;;;;;;26.30;99.90;;;;;;4969486;28;19920;-76
2022/06/21 12:50:49;;;;;;;;;;;26.20;99.90;;;;;;4969566;28;19950;-77
2022/06/21 12:53:35;;;;;;;;;;;26.20;99.90;;;;;;4968758;28;19918;-76
2022/06/21 12:56:09;;;;;;;;;;;26.40;99.90;;;;;;4968814;28;19917;-76
2022/06/21 12:58:35;;;;;;;;;;;26.30;99.90;;;;;;4968293;28;19910;-76
2022/06/21 13:01:04;;;;;;;;;;;26.40;99.90;;;;;;4969038;28;19922;-76
2022/06/21 13:03:45;;;;;;;;;;;26.30;99.90;;;;;;4968254;28;19925;-76
2022/06/21 13:06:11;;;;;;;;;;;26.20;99.90;;;;;;4965574;28;20008;-76
2022/06/21 13:08:55;;;;;;;;;;;26.20;99.90;;;;;;4968001;28;19910;-75
2022/06/21 13:11:39;;;;;;;;;;;26.20;99.90;;;;;;4968729;28;19996;-77
2022/06/21 13:14:04;;;;;;;;;;;26.20;99.90;;;;;;4968410;28;19914;-77
2022/06/21 13:16:33;;;;;;;;;;;26.20;99.90;;;;;;4978055;28;19992;-72
2022/06/21 13:19:17;;;;;;;;;;;26.20;99.90;;;;;;4987475;28;20536;-73
2022/06/21 13:21:51;;;;;;;;;;;26.20;99.90;;;;;;4970174;28;19910;-73
2022/06/21 13:24:36;;;;;;;;;;;26.20;99.90;;;;;;4989318;28;19906;-73
2022/06/21 13:27:01;;;;;;;;;;;26.10;99.90;;;;;;4990219;28;19909;-72
2022/06/21 13:29:47;;;;;;;;;;;26.10;99.90;;;;;;4988633;28;19960;-72
2022/06/21 13:32:17;;;;;;;;;;;26.00;99.90;;;;;;4986482;28;19924;-71
2022/06/21 13:34:53;;;;;;;;;;;25.90;99.90;;;;;;4987218;28;20422;-72
2022/06/21 13:37:20;;;;;;;;;;;25.80;99.90;;;;;;4987488;28;20373;-73
2022/06/21 13:39:45;;;;;;;;;;;25.70;99.90;;;;;;4986868;28;19920;-74
2022/06/21 13:45:16;;;;;;;;;;;25.70;99.90;;;;;;4989394;28;19945;-73
2022/06/21 13:48:00;;;;;;;;;;;25.70;99.90;;;;;;4982385;28;19967;-73
2022/06/21 13:50:31;;;;;;;;;;;25.70;99.90;;;;;;4984518;28;19964;-74
2022/06/21 13:53:13;;;;;;;;;;;25.70;99.90;;;;;;4987153;28;20004;-73
2022/06/21 13:55:54;;;;;;;;;;;25.70;99.90;;;;;;4989882;28;19913;-73
2022/06/21 13:58:23;;;;;;;;;;;25.80;99.90;;;;;;4992486;28;19937;-74
2022/06/21 14:01:06;;;;;;;;;;;25.60;99.90;;;;;;4998068;28;19917;-73
2022/06/21 14:03:35;;;;;;;;;;;25.60;99.90;;;;;;5010380;28;19917;-73
2022/06/21 14:06:13;;;;;;;;;;;25.70;99.90;;;;;;5013721;28;19963;-73
2022/06/21 14:08:45;;;;;;;;;;;25.80;99.90;;;;;;5015522;28;19910;-73
2022/06/21 14:11:19;;;;;;;;;;;25.90;99.90;;;;;;5013728;28;19928;-73
2022/06/21 14:13:58;;;;;;;;;;;26.10;99.90;;;;;;5013555;28;20000;-73
2022/06/21 14:16:31;;;;;;;;;;;26.30;99.90;;;;;;5012544;28;20200;-73
2022/06/21 14:19:00;;;;;;;;;;;26.50;99.90;;;;;;5009812;28;19909;-73
2022/06/21 14:21:35;;;;;;;;;;;26.60;99.90;;;;;;5025732;28;19912;-74
2022/06/21 14:24:21;;;;;;;;;;;26.80;99.90;;;;;;5012341;28;19912;-73
2022/06/21 14:26:58;;;;;;;;;;;26.90;99.90;;;;;;4940655;28;19921;-74
2022/06/21 14:29:33;;;;;;;;;;;26.90;99.90;;;;;;4943029;28;19958;-73
2022/06/21 14:31:59;;;;;;;;;;;27.10;99.90;;;;;;4942790;28;20054;-73
2022/06/21 14:34:30;;;;;;;;;;;27.30;99.90;;;;;;4942341;28;20412;-74
2022/06/21 14:37:22;;;;;;;;;;;27.40;99.90;;;;;;4945340;28;19910;-73
2022/06/21 14:39:50;;;;;;;;;;;27.50;99.90;;;;;;4909346;29;20005;-73
2022/06/21 14:42:24;;;;;;;;;;;27.50;99.90;;;;;;4909987;29;19911;-74
2022/06/21 14:45:07;;;;;;;;;;;27.50;99.90;;;;;;4908948;29;20055;-73
2022/06/21 14:47:37;;;;;;;;;;;27.60;99.90;;;;;;4909614;29;19910;-73
2022/06/21 14:50:16;;;;;;;;;;;27.70;99.90;;;;;;4909552;29;20332;-73
2022/06/21 14:52:58;;;;;;;;;;;27.80;99.90;;;;;;4909413;29;20014;-73
2022/06/21 14:55:42;;;;;;;;;;;27.90;99.90;;;;;;4893561;29;19961;-73
2022/06/21 14:58:11;;;;;;;;;;;28.00;99.90;;;;;;4909271;29;19911;-73
2022/06/21 15:00:42;;;;;;;;;;;28.00;99.90;;;;;;4911889;29;19922;-73
2022/06/21 15:03:08;;;;;;;;;;;28.10;99.90;;;;;;4918370;29;19915;-73
2022/06/21 15:05:54;;;;;;;;;;;28.20;99.90;;;;;;4944961;29;19962;-73
2022/06/21 15:08:22;;;;;;;;;;;28.30;99.90;;;;;;4939748;29;20365;-73